Atilio Vivacqua, Brazil
Current Conditions -  °F | °C
As of 8:00 PM on Sunday 21 Dec 2014 (Local Time) from SBCP Reporting Station
Clear Clear  
Wind Chill: 88°   Ceiling: Unl
Heat Index: 96°   Visibility: 6mi
Dew Point: 73°   Wind: 5mph
Humidity: 62%   Direction: 20°NNE
Pressure: 29.8"   Gusts: NA
Location:  20.91°S, 41.2°W
Report Text: SBCP 212200Z 02004KT CAVOK 31/23 Q1009
Loading
Personal Weather Stations






























Interactive Weather Map New forecast layout! Learn more

10-Day Weather Forecast

Advertisements
Track Severe Weather on mobile